createdAt,value
2023-04-30T00:01:00.736Z,99.90
2023-04-30T00:04:05.208Z,1.00
2023-04-30T00:07:10.000Z,1.00
2023-04-30T00:10:14.205Z,1.00
2023-04-30T00:13:19.097Z,1.00
2023-04-30T00:16:23.718Z,1.00
2023-04-30T00:19:27.809Z,27.80
2023-04-30T00:22:33.353Z,28.80
2023-04-30T00:25:38.147Z,99.90
2023-04-30T00:28:42.631Z,99.90
2023-04-30T00:31:47.184Z,99.90
2023-04-30T00:34:51.604Z,99.90
2023-04-30T00:37:55.903Z,99.90
2023-04-30T00:41:00.341Z,99.90
2023-04-30T00:44:04.915Z,99.90
2023-04-30T00:47:09.556Z,99.90
2023-04-30T00:50:15.940Z,1.00
2023-04-30T00:53:20.871Z,99.90
2023-04-30T00:56:25.514Z,43.50
2023-04-30T00:59:30.406Z,90.90
2023-04-30T01:02:36.108Z,68.90
2023-04-30T01:05:40.670Z,99.90
2023-04-30T01:08:46.464Z,99.90
2023-04-30T01:12:20.577Z,99.90
2023-04-30T01:15:46.839Z,99.90
2023-04-30T01:19:03.329Z,99.90
2023-04-30T01:22:14.714Z,60.80
2023-04-30T01:25:40.401Z,99.90
2023-04-30T01:28:45.969Z,68.40
2023-04-30T01:31:50.327Z,99.90
2023-04-30T01:34:54.590Z,99.90
2023-04-30T01:38:01.902Z,99.90
2023-04-30T01:41:10.989Z,99.90
2023-04-30T01:44:44.096Z,99.90
2023-04-30T01:47:50.160Z,1.00
2023-04-30T01:51:23.869Z,11.40
2023-04-30T01:54:33.650Z,99.90
2023-04-30T01:57:44.360Z,99.90
2023-04-30T02:00:48.558Z,99.90
2023-04-30T02:03:52.948Z,99.90
2023-04-30T02:06:58.712Z,99.90
2023-04-30T02:10:03.271Z,99.90
2023-04-30T02:13:07.691Z,99.90
2023-04-30T02:16:12.257Z,1.00
2023-04-30T02:19:16.513Z,1.00
2023-04-30T02:22:20.709Z,99.90
2023-04-30T02:25:26.232Z,1.00
2023-04-30T02:28:30.835Z,1.00
2023-04-30T02:31:35.450Z,1.00
2023-04-30T02:34:39.709Z,99.90
2023-04-30T02:37:44.074Z,99.90
2023-04-30T02:40:48.504Z,99.90
2023-04-30T02:43:53.017Z,1.00
2023-04-30T02:46:57.536Z,4.90
2023-04-30T02:50:01.754Z,1.00
2023-04-30T02:53:06.336Z,1.00
2023-04-30T02:56:10.735Z,1.00
2023-04-30T02:59:15.272Z,99.90
2023-04-30T03:02:21.626Z,5.90
2023-04-30T03:05:26.460Z,1.00
2023-04-30T03:08:30.932Z,88.40
2023-04-30T03:11:37.664Z,1.00
2023-04-30T03:14:42.228Z,99.90
2023-04-30T03:17:46.552Z,99.90
2023-04-30T03:20:50.857Z,94.10
2023-04-30T03:23:55.292Z,68.10
2023-04-30T03:27:00.180Z,1.00
2023-04-30T03:30:07.177Z,1.00
2023-04-30T03:33:11.635Z,1.00
2023-04-30T03:36:16.086Z,99.90
2023-04-30T03:39:20.683Z,5.50
2023-04-30T03:42:25.535Z,45.00
2023-04-30T03:45:30.411Z,25.70
2023-04-30T03:48:34.599Z,25.50
2023-04-30T03:51:41.965Z,1.00
2023-04-30T03:54:46.232Z,1.00
2023-04-30T03:57:51.675Z,75.10
2023-04-30T04:00:56.188Z,1.00
2023-04-30T04:04:02.117Z,1.00
2023-04-30T04:07:09.502Z,99.90
2023-04-30T04:10:14.338Z,1.00
2023-04-30T04:13:18.772Z,99.90
2023-04-30T04:16:23.152Z,99.90
2023-04-30T04:19:28.037Z,99.90
2023-04-30T04:22:34.557Z,99.90
2023-04-30T04:25:39.363Z,99.90
2023-04-30T04:28:44.159Z,99.90
2023-04-30T04:31:49.296Z,99.90
2023-04-30T04:34:54.382Z,99.90
2023-04-30T04:37:59.039Z,99.90
2023-04-30T04:41:03.235Z,99.90
2023-04-30T04:44:08.317Z,99.90
2023-04-30T04:47:12.874Z,99.90
2023-04-30T04:50:18.091Z,99.90
2023-04-30T04:53:22.428Z,47.90
2023-04-30T04:56:26.740Z,25.30
2023-04-30T04:59:31.113Z,1.00
2023-04-30T05:02:36.176Z,99.90
2023-04-30T05:05:40.952Z,99.90
2023-04-30T05:08:44.854Z,99.70
2023-04-30T05:11:49.379Z,96.90
2023-04-30T05:14:53.712Z,23.00
2023-04-30T05:17:58.336Z,1.00
2023-04-30T05:21:04.298Z,99.90
2023-04-30T05:24:08.585Z,1.00
2023-04-30T05:27:12.913Z,99.90
2023-04-30T05:30:17.355Z,99.90
2023-04-30T05:33:21.826Z,49.30
2023-04-30T05:36:26.495Z,99.90
2023-04-30T05:39:30.904Z,99.90
2023-04-30T05:42:35.509Z,99.90
2023-04-30T05:45:39.671Z,89.40
2023-04-30T05:48:44.203Z,20.20
2023-04-30T05:51:48.625Z,99.90
2023-04-30T05:54:54.031Z,1.00
2023-04-30T05:57:58.417Z,99.90
2023-04-30T06:01:02.928Z,99.90
2023-04-30T06:04:09.201Z,99.90
2023-04-30T06:07:13.981Z,99.90
2023-04-30T06:10:18.498Z,99.90
2023-04-30T06:13:23.168Z,12.00
2023-04-30T06:16:27.394Z,1.00
2023-04-30T06:19:31.685Z,99.90
2023-04-30T06:22:36.074Z,33.90
2023-04-30T06:25:40.545Z,99.90
2023-04-30T06:28:45.366Z,99.90
2023-04-30T06:31:52.890Z,99.90
2023-04-30T06:34:57.543Z,99.90
2023-04-30T06:38:02.220Z,99.90
2023-04-30T06:41:06.943Z,99.90
2023-04-30T06:44:11.328Z,99.90
2023-04-30T06:47:15.933Z,48.50
2023-04-30T06:50:21.862Z,76.90
2023-04-30T06:53:26.488Z,1.00
2023-04-30T06:56:31.081Z,5.20
2023-04-30T06:59:35.501Z,1.00
2023-04-30T07:02:40.116Z,99.90
2023-04-30T07:05:44.888Z,99.90
2023-04-30T07:08:49.231Z,99.90
2023-04-30T07:11:53.477Z,99.90
2023-04-30T07:14:59.380Z,99.90
2023-04-30T07:18:04.417Z,99.90
2023-04-30T07:21:09.126Z,99.90
2023-04-30T07:24:13.400Z,99.90
2023-04-30T07:27:17.528Z,99.90
2023-04-30T07:30:23.055Z,99.90
2023-04-30T07:33:29.774Z,99.90
2023-04-30T07:36:34.485Z,99.90
2023-04-30T07:39:38.688Z,99.90
2023-04-30T07:42:43.168Z,99.90
2023-04-30T07:45:49.362Z,99.90
2023-04-30T07:48:53.604Z,99.90
2023-04-30T07:51:58.171Z,99.90
2023-04-30T07:55:03.272Z,99.90
2023-04-30T07:58:07.844Z,99.90
2023-04-30T08:01:12.549Z,95.70
2023-04-30T08:04:16.949Z,92.70
2023-04-30T08:07:21.716Z,99.90
2023-04-30T08:10:26.826Z,99.90
2023-04-30T08:13:31.552Z,99.90
2023-04-30T08:16:36.135Z,99.90
2023-04-30T08:19:42.025Z,99.90
2023-04-30T08:22:48.790Z,99.90
2023-04-30T08:25:54.427Z,52.80
2023-04-30T08:28:59.962Z,54.20
2023-04-30T08:32:07.918Z,39.10
2023-04-30T08:35:18.607Z,12.40
2023-04-30T08:38:22.962Z,1.00
2023-04-30T08:41:35.452Z,1.00
2023-04-30T08:44:46.695Z,1.00
2023-04-30T08:47:52.934Z,1.00
2023-04-30T08:51:06.485Z,1.00
2023-04-30T08:54:15.884Z,1.00
2023-04-30T08:57:26.493Z,1.00
2023-04-30T09:00:33.841Z,1.00
2023-04-30T09:03:49.458Z,1.00
2023-04-30T09:06:59.108Z,1.00
2023-04-30T09:10:04.897Z,1.00
2023-04-30T09:13:10.468Z,99.90
2023-04-30T09:16:14.852Z,99.90
2023-04-30T09:19:27.858Z,99.90
2023-04-30T09:22:36.740Z,99.90
2023-04-30T09:25:47.163Z,99.90
2023-04-30T09:28:57.543Z,99.90
2023-04-30T09:32:09.331Z,99.90
2023-04-30T09:35:33.180Z,99.90
2023-04-30T09:38:37.996Z,99.90
2023-04-30T09:41:43.004Z,99.90
2023-04-30T09:44:52.467Z,99.90
2023-04-30T09:48:09.226Z,99.90
2023-04-30T09:51:21.005Z,99.90
2023-04-30T09:54:32.411Z,99.90
2023-04-30T09:57:37.649Z,99.90
2023-04-30T10:00:43.095Z,99.90
2023-04-30T10:03:48.765Z,99.90
2023-04-30T10:06:55.073Z,99.90
2023-04-30T10:10:06.611Z,99.90
2023-04-30T10:13:22.139Z,99.90
2023-04-30T10:16:46.308Z,99.90
2023-04-30T10:19:54.573Z,99.90
2023-04-30T10:23:03.036Z,99.90
2023-04-30T10:26:08.578Z,99.90
2023-04-30T10:29:15.687Z,99.90
2023-04-30T10:32:22.473Z,99.90
2023-04-30T10:38:56.262Z,99.90
2023-04-30T10:42:11.988Z,99.90
2023-04-30T10:45:17.903Z,99.90
2023-04-30T10:48:33.544Z,99.90
2023-04-30T10:51:49.329Z,99.90
2023-04-30T10:54:54.440Z,99.90
2023-04-30T10:57:59.161Z,99.90
2023-04-30T11:01:14.789Z,99.90
2023-04-30T11:04:19.614Z,99.90
2023-04-30T11:07:25.787Z,99.90
2023-04-30T11:10:34.365Z,99.90
2023-04-30T11:13:45.182Z,99.90
2023-04-30T11:16:50.857Z,99.90
2023-04-30T11:20:03.643Z,99.90
2023-04-30T11:23:15.461Z,99.90
2023-04-30T11:26:21.719Z,99.90
2023-04-30T11:29:26.508Z,99.90
2023-04-30T11:32:35.964Z,99.90
2023-04-30T11:35:40.630Z,99.90
2023-04-30T11:38:45.724Z,99.90
2023-04-30T11:41:49.827Z,99.90
2023-04-30T11:44:54.491Z,99.90
2023-04-30T11:47:59.040Z,99.90
2023-04-30T11:51:20.698Z,99.90
2023-04-30T11:54:24.849Z,99.90
2023-04-30T11:57:34.619Z,99.90
2023-04-30T12:00:39.121Z,99.90
2023-04-30T12:03:48.182Z,99.90
2023-04-30T12:06:52.661Z,99.90
2023-04-30T12:09:57.479Z,99.90
2023-04-30T12:13:02.957Z,99.90
2023-04-30T12:16:07.951Z,99.90
2023-04-30T12:19:12.721Z,99.90
2023-04-30T12:22:17.289Z,99.90
2023-04-30T12:25:23.204Z,99.90
2023-04-30T12:28:28.437Z,99.90
2023-04-30T12:31:33.761Z,99.90
2023-04-30T12:34:38.492Z,99.90
2023-04-30T12:37:54.385Z,99.90
2023-04-30T12:40:59.356Z,99.90
2023-04-30T12:44:21.758Z,99.90
2023-04-30T12:47:26.826Z,99.90
2023-04-30T12:50:31.411Z,99.90
2023-04-30T12:53:45.820Z,99.90
2023-04-30T12:56:57.959Z,99.90
2023-04-30T13:00:05.570Z,99.90
2023-04-30T13:03:10.516Z,99.90
2023-04-30T13:06:15.567Z,99.90
2023-04-30T13:09:20.313Z,99.90
2023-04-30T13:12:24.981Z,99.90
2023-04-30T13:15:29.420Z,99.90
2023-04-30T13:18:34.046Z,99.90
2023-04-30T13:21:38.348Z,99.90
2023-04-30T13:24:43.164Z,99.90
2023-04-30T13:27:47.660Z,99.90
2023-04-30T13:30:52.313Z,99.90
2023-04-30T13:33:56.532Z,99.90
2023-04-30T13:37:00.848Z,99.90
2023-04-30T13:40:09.444Z,99.90
2023-04-30T13:43:14.318Z,99.90
2023-04-30T13:46:19.425Z,99.90
2023-04-30T13:49:24.459Z,99.90
2023-04-30T13:52:29.018Z,99.90
2023-04-30T13:55:33.599Z,99.90
2023-04-30T13:58:38.222Z,99.90
2023-04-30T14:01:42.907Z,99.90
2023-04-30T14:04:58.380Z,99.90
2023-04-30T14:08:09.410Z,99.90
2023-04-30T14:11:13.871Z,99.90
2023-04-30T14:14:18.190Z,99.90
2023-04-30T14:17:23.214Z,99.90
2023-04-30T14:20:27.583Z,99.90
2023-04-30T14:23:32.139Z,99.90
2023-04-30T14:26:36.388Z,99.90
2023-04-30T14:29:40.708Z,99.90
2023-04-30T14:32:44.687Z,99.90
2023-04-30T14:35:49.048Z,99.90
2023-04-30T14:38:54.356Z,99.90
2023-04-30T14:41:58.799Z,99.90
2023-04-30T14:45:03.137Z,99.90
2023-04-30T14:48:07.773Z,99.90
2023-04-30T14:51:12.436Z,99.90
2023-04-30T14:54:17.064Z,99.90
2023-04-30T14:57:21.360Z,99.90
2023-04-30T15:00:25.972Z,99.90
2023-04-30T15:03:31.058Z,99.90
2023-04-30T15:06:35.669Z,99.90
2023-04-30T15:09:40.241Z,99.90
2023-04-30T15:12:44.647Z,99.90
2023-04-30T15:15:49.700Z,99.90
2023-04-30T15:18:54.225Z,99.90
2023-04-30T15:21:58.468Z,99.90
2023-04-30T15:25:03.883Z,99.90
2023-04-30T15:28:08.627Z,99.90
2023-04-30T15:31:13.324Z,99.90
2023-04-30T15:34:17.880Z,99.90
2023-04-30T15:37:22.368Z,99.90
2023-04-30T15:40:26.808Z,99.90
2023-04-30T15:43:32.293Z,99.90
2023-04-30T15:46:36.866Z,99.90
2023-04-30T15:49:41.430Z,99.90
2023-04-30T15:52:45.971Z,99.90
2023-04-30T15:55:50.701Z,99.90
2023-04-30T15:58:56.013Z,99.90
2023-04-30T16:02:00.476Z,99.90
2023-04-30T16:05:05.789Z,99.90
2023-04-30T16:08:10.746Z,99.90
2023-04-30T16:11:15.576Z,99.90
2023-04-30T16:14:20.644Z,99.90
2023-04-30T16:17:25.057Z,99.90
2023-04-30T16:20:30.477Z,99.90
2023-04-30T16:23:35.698Z,99.90
2023-04-30T16:26:39.952Z,99.90
2023-04-30T16:29:44.268Z,99.90
2023-04-30T16:32:48.697Z,99.90
2023-04-30T16:35:54.479Z,99.90
2023-04-30T16:38:59.213Z,99.90
2023-04-30T16:42:03.749Z,99.90
2023-04-30T16:45:09.148Z,99.90
2023-04-30T16:48:13.791Z,99.90
2023-04-30T16:51:18.173Z,99.90
2023-04-30T16:54:22.985Z,99.90
2023-04-30T16:57:27.630Z,99.90
2023-04-30T17:00:32.348Z,99.90
2023-04-30T17:03:36.962Z,99.90
2023-04-30T17:06:41.442Z,99.90
2023-04-30T17:09:45.839Z,99.90
2023-04-30T17:12:50.521Z,99.90
2023-04-30T17:16:01.456Z,99.90
2023-04-30T17:19:07.459Z,99.90
2023-04-30T17:22:13.120Z,99.90
2023-04-30T17:25:17.237Z,99.90
2023-04-30T17:28:21.793Z,99.90
2023-04-30T17:31:26.868Z,99.90
2023-04-30T17:34:31.597Z,99.90
2023-04-30T17:37:35.750Z,99.90
2023-04-30T17:40:40.390Z,99.90
2023-04-30T17:43:44.669Z,99.90
2023-04-30T17:46:49.419Z,99.90
2023-04-30T17:49:53.771Z,99.90
2023-04-30T17:52:58.255Z,99.90
2023-04-30T17:56:03.620Z,99.90
2023-04-30T17:59:08.345Z,99.90
2023-04-30T18:02:13.483Z,99.90
2023-04-30T18:05:17.895Z,99.90
2023-04-30T18:08:22.233Z,99.90
2023-04-30T18:11:26.546Z,99.90
2023-04-30T18:14:32.209Z,99.90
2023-04-30T18:17:37.690Z,99.90
2023-04-30T18:20:42.437Z,99.90
2023-04-30T18:23:47.320Z,99.90
2023-04-30T18:26:52.006Z,1.00
2023-04-30T18:29:56.767Z,1.00
2023-04-30T18:33:01.328Z,1.00
2023-04-30T18:36:07.433Z,1.00
2023-04-30T18:39:13.334Z,1.00
2023-04-30T18:42:17.965Z,1.00
2023-04-30T18:45:23.064Z,1.00
2023-04-30T18:48:27.795Z,1.00
2023-04-30T18:51:32.397Z,1.00
2023-04-30T18:54:36.884Z,1.00
2023-04-30T18:57:42.452Z,1.00
2023-04-30T19:00:47.046Z,1.00
2023-04-30T19:03:51.471Z,1.00
2023-04-30T19:06:55.993Z,6.50
2023-04-30T19:10:02.152Z,12.70
2023-04-30T19:13:07.162Z,16.40
2023-04-30T19:16:11.944Z,23.70
2023-04-30T19:19:16.175Z,32.00
2023-04-30T19:22:20.711Z,32.00
2023-04-30T19:25:25.520Z,29.80
2023-04-30T19:28:29.985Z,29.10
2023-04-30T19:31:35.310Z,47.70
2023-04-30T19:34:39.563Z,61.60
2023-04-30T19:37:44.033Z,94.90
2023-04-30T19:40:53.119Z,92.90
2023-04-30T19:43:57.487Z,99.90
2023-04-30T19:47:02.190Z,99.90
2023-04-30T19:50:07.675Z,99.90
2023-04-30T19:53:13.239Z,99.90
2023-04-30T19:56:18.046Z,99.90
2023-04-30T19:59:22.440Z,99.90
2023-04-30T20:02:27.013Z,99.90
2023-04-30T20:05:36.116Z,99.90
2023-04-30T20:08:40.604Z,99.90
2023-04-30T20:11:49.389Z,99.90
2023-04-30T20:14:53.677Z,99.90
2023-04-30T20:17:59.546Z,99.90
2023-04-30T20:21:04.632Z,99.90
2023-04-30T20:24:10.093Z,99.90
2023-04-30T20:27:14.066Z,99.90
2023-04-30T20:30:18.479Z,99.90
2023-04-30T20:33:22.969Z,99.90
2023-04-30T20:36:31.642Z,99.90
2023-04-30T20:39:38.328Z,99.90
2023-04-30T20:42:43.046Z,99.90
2023-04-30T20:45:48.274Z,99.90
2023-04-30T20:48:54.639Z,99.90
2023-04-30T20:51:59.461Z,99.90
2023-04-30T20:55:04.130Z,99.90
2023-04-30T20:58:09.300Z,99.90
2023-04-30T21:01:13.931Z,99.90
2023-04-30T21:04:18.822Z,99.90
2023-04-30T21:07:23.761Z,99.90
2023-04-30T21:10:35.783Z,1.00
2023-04-30T21:13:41.730Z,1.00
2023-04-30T21:16:46.263Z,97.00
2023-04-30T21:19:50.809Z,99.90
2023-04-30T21:22:55.439Z,99.90
2023-04-30T21:25:59.824Z,99.90
2023-04-30T21:29:04.277Z,99.90
2023-04-30T21:32:08.952Z,99.90
2023-04-30T21:35:14.302Z,99.90
2023-04-30T21:38:19.061Z,99.90
2023-04-30T21:41:28.121Z,99.90
2023-04-30T21:44:33.062Z,63.60
2023-04-30T21:47:37.502Z,92.60
2023-04-30T21:50:41.731Z,48.70
2023-04-30T21:53:46.579Z,99.90
2023-04-30T21:56:51.049Z,1.00
2023-04-30T21:59:55.623Z,24.00
2023-04-30T22:03:00.403Z,99.90
2023-04-30T22:06:04.927Z,99.90
2023-04-30T22:09:09.588Z,99.90
2023-04-30T22:12:14.879Z,99.90
2023-04-30T22:15:19.138Z,99.90
2023-04-30T22:18:24.285Z,99.90
2023-04-30T22:21:28.862Z,99.90
2023-04-30T22:24:33.376Z,99.90
2023-04-30T22:27:38.155Z,1.00
2023-04-30T22:30:42.789Z,1.00
2023-04-30T22:33:47.709Z,1.00
2023-04-30T22:36:52.508Z,1.00
2023-04-30T22:39:57.373Z,13.50
2023-04-30T22:43:02.574Z,3.10
2023-04-30T22:46:06.828Z,53.20
2023-04-30T22:49:27.333Z,94.70
2023-04-30T22:52:36.705Z,99.90
2023-04-30T22:55:41.557Z,99.90
2023-04-30T22:58:45.620Z,99.90
2023-04-30T23:01:50.072Z,99.90
2023-04-30T23:04:54.693Z,99.90
2023-04-30T23:07:59.271Z,99.90
2023-04-30T23:11:04.963Z,1.00
2023-04-30T23:14:09.160Z,1.00
2023-04-30T23:17:13.450Z,1.00
2023-04-30T23:20:17.795Z,27.90
2023-04-30T23:23:22.294Z,99.90
2023-04-30T23:26:26.731Z,99.90
2023-04-30T23:29:31.219Z,99.90
2023-04-30T23:32:35.551Z,99.90
2023-04-30T23:35:43.187Z,99.90
2023-04-30T23:38:47.786Z,99.90
2023-04-30T23:41:52.350Z,1.00
2023-04-30T23:44:57.465Z,99.90
2023-04-30T23:48:02.264Z,99.90
2023-04-30T23:51:08.756Z,99.90
2023-04-30T23:54:13.276Z,99.90
2023-04-30T23:57:18.271Z,99.90
